sensor_id;sensor_type;location;lat;lon;timestamp;P1;durP1;ratioP1;P2;durP2;ratioP2
51382;SDS011;37475;43.358;1.248;2023-03-21T00:01:10;20.25;;;11.15;;
51382;SDS011;37475;43.358;1.248;2023-03-21T00:03:38;19.75;;;10.27;;
51382;SDS011;37475;43.358;1.248;2023-03-21T00:06:05;17.05;;;8.35;;
51382;SDS011;37475;43.358;1.248;2023-03-21T00:08:35;14.80;;;8.18;;
51382;SDS011;37475;43.358;1.248;2023-03-21T00:11:03;12.63;;;7.50;;
51382;SDS011;37475;43.358;1.248;2023-03-21T00:13:31;13.30;;;7.72;;
51382;SDS011;37475;43.358;1.248;2023-03-21T00:16:08;13.45;;;6.70;;
51382;SDS011;37475;43.358;1.248;2023-03-21T00:18:44;13.23;;;6.70;;
51382;SDS011;37475;43.358;1.248;2023-03-21T00:21:14;11.80;;;6.22;;
51382;SDS011;37475;43.358;1.248;2023-03-21T00:23:45;13.03;;;6.07;;
51382;SDS011;37475;43.358;1.248;2023-03-21T00:26:11;9.52;;;6.07;;
51382;SDS011;37475;43.358;1.248;2023-03-21T00:28:39;12.23;;;6.82;;
51382;SDS011;37475;43.358;1.248;2023-03-21T00:31:07;12.32;;;6.70;;
51382;SDS011;37475;43.358;1.248;2023-03-21T00:33:33;13.15;;;7.07;;
51382;SDS011;37475;43.358;1.248;2023-03-21T00:36:00;16.55;;;9.07;;
51382;SDS011;37475;43.358;1.248;2023-03-21T00:38:26;16.77;;;8.98;;
51382;SDS011;37475;43.358;1.248;2023-03-21T00:40:52;16.10;;;8.70;;
51382;SDS011;37475;43.358;1.248;2023-03-21T00:43:18;17.33;;;9.40;;
51382;SDS011;37475;43.358;1.248;2023-03-21T00:45:47;17.70;;;9.00;;
51382;SDS011;37475;43.358;1.248;2023-03-21T00:48:15;19.10;;;9.88;;
51382;SDS011;37475;43.358;1.248;2023-03-21T00:50:43;16.65;;;9.00;;
51382;SDS011;37475;43.358;1.248;2023-03-21T00:53:11;15.85;;;7.95;;
51382;SDS011;37475;43.358;1.248;2023-03-21T00:55:38;16.20;;;7.90;;
51382;SDS011;37475;43.358;1.248;2023-03-21T00:58:05;14.23;;;8.07;;
51382;SDS011;37475;43.358;1.248;2023-03-21T01:00:31;13.50;;;8.07;;
51382;SDS011;37475;43.358;1.248;2023-03-21T01:03:00;13.80;;;7.95;;
51382;SDS011;37475;43.358;1.248;2023-03-21T01:05:30;13.38;;;7.45;;
51382;SDS011;37475;43.358;1.248;2023-03-21T01:08:36;13.60;;;7.90;;
51382;SDS011;37475;43.358;1.248;2023-03-21T01:11:06;12.40;;;7.95;;
51382;SDS011;37475;43.358;1.248;2023-03-21T01:13:35;16.08;;;7.80;;
51382;SDS011;37475;43.358;1.248;2023-03-21T01:16:02;14.90;;;8.38;;
51382;SDS011;37475;43.358;1.248;2023-03-21T01:18:30;12.65;;;7.35;;
51382;SDS011;37475;43.358;1.248;2023-03-21T01:20:58;12.82;;;7.93;;
51382;SDS011;37475;43.358;1.248;2023-03-21T01:23:26;15.00;;;8.18;;
51382;SDS011;37475;43.358;1.248;2023-03-21T01:25:53;14.05;;;7.45;;
51382;SDS011;37475;43.358;1.248;2023-03-21T01:28:20;14.98;;;8.55;;
51382;SDS011;37475;43.358;1.248;2023-03-21T01:30:49;15.15;;;8.80;;
51382;SDS011;37475;43.358;1.248;2023-03-21T01:33:16;13.00;;;7.78;;
51382;SDS011;37475;43.358;1.248;2023-03-21T01:35:44;16.17;;;8.88;;
51382;SDS011;37475;43.358;1.248;2023-03-21T01:38:10;14.10;;;8.00;;
51382;SDS011;37475;43.358;1.248;2023-03-21T01:40:37;13.13;;;7.90;;
51382;SDS011;37475;43.358;1.248;2023-03-21T01:43:10;15.98;;;8.48;;
51382;SDS011;37475;43.358;1.248;2023-03-21T01:48:47;16.55;;;8.13;;
51382;SDS011;37475;43.358;1.248;2023-03-21T01:51:26;13.60;;;8.45;;
51382;SDS011;37475;43.358;1.248;2023-03-21T01:53:53;13.40;;;8.27;;
51382;SDS011;37475;43.358;1.248;2023-03-21T01:56:24;16.42;;;9.45;;
51382;SDS011;37475;43.358;1.248;2023-03-21T01:58:55;15.55;;;8.60;;
51382;SDS011;37475;43.358;1.248;2023-03-21T02:01:30;16.60;;;9.38;;
51382;SDS011;37475;43.358;1.248;2023-03-21T02:03:58;14.90;;;7.78;;
51382;SDS011;37475;43.358;1.248;2023-03-21T02:09:06;11.90;;;7.05;;
51382;SDS011;37475;43.358;1.248;2023-03-21T02:11:37;10.60;;;6.97;;
51382;SDS011;37475;43.358;1.248;2023-03-21T02:14:03;13.15;;;6.82;;
51382;SDS011;37475;43.358;1.248;2023-03-21T02:16:33;12.07;;;6.78;;
51382;SDS011;37475;43.358;1.248;2023-03-21T02:31:09;12.93;;;8.10;;
51382;SDS011;37475;43.358;1.248;2023-03-21T02:39:58;14.38;;;8.30;;
51382;SDS011;37475;43.358;1.248;2023-03-21T02:48:12;10.52;;;7.00;;
51382;SDS011;37475;43.358;1.248;2023-03-21T02:50:47;13.35;;;6.50;;
51382;SDS011;37475;43.358;1.248;2023-03-21T02:53:18;11.18;;;6.47;;
51382;SDS011;37475;43.358;1.248;2023-03-21T02:55:47;14.48;;;6.93;;
51382;SDS011;37475;43.358;1.248;2023-03-21T02:58:16;11.52;;;6.18;;
51382;SDS011;37475;43.358;1.248;2023-03-21T03:00:46;12.38;;;6.97;;
51382;SDS011;37475;43.358;1.248;2023-03-21T03:03:13;11.30;;;6.15;;
51382;SDS011;37475;43.358;1.248;2023-03-21T03:05:58;11.02;;;5.95;;
51382;SDS011;37475;43.358;1.248;2023-03-21T03:08:40;11.55;;;5.78;;
51382;SDS011;37475;43.358;1.248;2023-03-21T03:11:39;11.98;;;6.60;;
51382;SDS011;37475;43.358;1.248;2023-03-21T03:17:42;11.40;;;6.75;;
51382;SDS011;37475;43.358;1.248;2023-03-21T03:25:44;12.77;;;6.60;;
51382;SDS011;37475;43.358;1.248;2023-03-21T03:28:22;13.50;;;7.25;;
51382;SDS011;37475;43.358;1.248;2023-03-21T03:30:54;13.95;;;7.18;;
51382;SDS011;37475;43.358;1.248;2023-03-21T03:33:22;16.10;;;7.35;;
51382;SDS011;37475;43.358;1.248;2023-03-21T03:35:50;16.65;;;7.97;;
51382;SDS011;37475;43.358;1.248;2023-03-21T03:38:20;13.18;;;7.60;;
51382;SDS011;37475;43.358;1.248;2023-03-21T03:40:48;14.00;;;7.55;;
51382;SDS011;37475;43.358;1.248;2023-03-21T03:43:25;16.02;;;6.82;;
51382;SDS011;37475;43.358;1.248;2023-03-21T03:46:01;14.25;;;6.97;;
51382;SDS011;37475;43.358;1.248;2023-03-21T03:48:42;12.68;;;6.65;;
51382;SDS011;37475;43.358;1.248;2023-03-21T03:51:28;13.38;;;7.15;;
51382;SDS011;37475;43.358;1.248;2023-03-21T03:54:15;15.57;;;7.22;;
51382;SDS011;37475;43.358;1.248;2023-03-21T03:56:46;12.00;;;7.32;;
51382;SDS011;37475;43.358;1.248;2023-03-21T03:59:14;13.35;;;7.30;;
51382;SDS011;37475;43.358;1.248;2023-03-21T04:01:47;20.30;;;9.93;;
51382;SDS011;37475;43.358;1.248;2023-03-21T04:04:13;17.17;;;9.73;;
51382;SDS011;37475;43.358;1.248;2023-03-21T04:06:41;18.13;;;9.30;;
51382;SDS011;37475;43.358;1.248;2023-03-21T04:09:15;20.25;;;10.60;;
51382;SDS011;37475;43.358;1.248;2023-03-21T04:11:42;13.45;;;8.13;;
51382;SDS011;37475;43.358;1.248;2023-03-21T04:14:08;18.02;;;8.73;;
51382;SDS011;37475;43.358;1.248;2023-03-21T04:16:34;16.30;;;9.40;;
51382;SDS011;37475;43.358;1.248;2023-03-21T04:19:00;18.73;;;9.45;;
51382;SDS011;37475;43.358;1.248;2023-03-21T04:21:26;15.23;;;8.13;;
51382;SDS011;37475;43.358;1.248;2023-03-21T04:23:53;11.77;;;7.28;;
51382;SDS011;37475;43.358;1.248;2023-03-21T04:26:20;13.70;;;7.07;;
51382;SDS011;37475;43.358;1.248;2023-03-21T04:28:47;12.85;;;6.50;;
51382;SDS011;37475;43.358;1.248;2023-03-21T04:31:14;10.70;;;6.30;;
51382;SDS011;37475;43.358;1.248;2023-03-21T04:33:41;10.90;;;6.50;;
51382;SDS011;37475;43.358;1.248;2023-03-21T04:36:08;14.35;;;6.38;;
51382;SDS011;37475;43.358;1.248;2023-03-21T04:38:42;15.00;;;6.70;;
51382;SDS011;37475;43.358;1.248;2023-03-21T04:41:12;15.98;;;7.65;;
51382;SDS011;37475;43.358;1.248;2023-03-21T04:43:38;11.90;;;7.22;;
51382;SDS011;37475;43.358;1.248;2023-03-21T04:46:04;17.08;;;7.95;;
51382;SDS011;37475;43.358;1.248;2023-03-21T04:48:30;20.60;;;8.02;;
51382;SDS011;37475;43.358;1.248;2023-03-21T04:50:56;18.10;;;8.75;;
51382;SDS011;37475;43.358;1.248;2023-03-21T04:53:21;17.98;;;8.75;;
51382;SDS011;37475;43.358;1.248;2023-03-21T04:55:47;15.50;;;8.13;;
51382;SDS011;37475;43.358;1.248;2023-03-21T04:58:13;12.10;;;6.90;;
51382;SDS011;37475;43.358;1.248;2023-03-21T05:00:39;13.80;;;7.22;;
51382;SDS011;37475;43.358;1.248;2023-03-21T05:03:05;16.20;;;7.07;;
51382;SDS011;37475;43.358;1.248;2023-03-21T05:05:35;14.57;;;7.28;;
51382;SDS011;37475;43.358;1.248;2023-03-21T05:08:04;12.20;;;7.15;;
51382;SDS011;37475;43.358;1.248;2023-03-21T05:10:30;11.25;;;6.40;;
51382;SDS011;37475;43.358;1.248;2023-03-21T05:12:57;11.57;;;6.70;;
51382;SDS011;37475;43.358;1.248;2023-03-21T05:15:22;10.15;;;6.53;;
51382;SDS011;37475;43.358;1.248;2023-03-21T05:17:48;11.55;;;6.07;;
51382;SDS011;37475;43.358;1.248;2023-03-21T05:20:14;11.20;;;5.97;;
51382;SDS011;37475;43.358;1.248;2023-03-21T05:22:41;9.98;;;6.03;;
51382;SDS011;37475;43.358;1.248;2023-03-21T05:25:10;12.65;;;6.35;;
51382;SDS011;37475;43.358;1.248;2023-03-21T05:27:37;10.35;;;5.80;;
51382;SDS011;37475;43.358;1.248;2023-03-21T05:30:13;12.73;;;5.72;;
51382;SDS011;37475;43.358;1.248;2023-03-21T05:32:41;10.13;;;5.22;;
51382;SDS011;37475;43.358;1.248;2023-03-21T05:35:07;11.35;;;6.00;;
51382;SDS011;37475;43.358;1.248;2023-03-21T05:37:33;12.85;;;5.75;;
51382;SDS011;37475;43.358;1.248;2023-03-21T05:39:59;10.20;;;5.53;;
51382;SDS011;37475;43.358;1.248;2023-03-21T05:42:25;10.18;;;6.05;;
51382;SDS011;37475;43.358;1.248;2023-03-21T05:44:51;10.65;;;6.80;;
51382;SDS011;37475;43.358;1.248;2023-03-21T05:47:17;18.60;;;6.90;;
51382;SDS011;37475;43.358;1.248;2023-03-21T05:49:44;13.77;;;7.70;;
51382;SDS011;37475;43.358;1.248;2023-03-21T05:52:11;12.95;;;6.57;;
51382;SDS011;37475;43.358;1.248;2023-03-21T05:54:37;12.05;;;6.13;;
51382;SDS011;37475;43.358;1.248;2023-03-21T05:57:03;13.15;;;7.18;;
51382;SDS011;37475;43.358;1.248;2023-03-21T05:59:29;14.63;;;6.97;;
51382;SDS011;37475;43.358;1.248;2023-03-21T06:01:55;11.07;;;6.03;;
51382;SDS011;37475;43.358;1.248;2023-03-21T06:04:21;11.50;;;5.80;;
51382;SDS011;37475;43.358;1.248;2023-03-21T06:06:47;19.17;;;5.97;;
51382;SDS011;37475;43.358;1.248;2023-03-21T06:09:13;10.90;;;5.40;;
51382;SDS011;37475;43.358;1.248;2023-03-21T06:11:40;12.40;;;5.90;;
51382;SDS011;37475;43.358;1.248;2023-03-21T06:14:13;17.15;;;6.47;;
51382;SDS011;37475;43.358;1.248;2023-03-21T06:16:40;9.52;;;6.20;;
51382;SDS011;37475;43.358;1.248;2023-03-21T06:19:06;10.57;;;5.82;;
51382;SDS011;37475;43.358;1.248;2023-03-21T06:21:32;9.30;;;5.78;;
51382;SDS011;37475;43.358;1.248;2023-03-21T06:23:58;13.73;;;6.18;;
51382;SDS011;37475;43.358;1.248;2023-03-21T06:26:24;15.18;;;6.80;;
51382;SDS011;37475;43.358;1.248;2023-03-21T06:28:50;12.98;;;6.93;;
51382;SDS011;37475;43.358;1.248;2023-03-21T06:31:17;16.75;;;6.88;;
51382;SDS011;37475;43.358;1.248;2023-03-21T06:33:46;11.90;;;6.07;;
51382;SDS011;37475;43.358;1.248;2023-03-21T06:36:12;11.32;;;4.97;;
51382;SDS011;37475;43.358;1.248;2023-03-21T06:38:39;9.35;;;5.53;;
51382;SDS011;37475;43.358;1.248;2023-03-21T06:41:05;11.13;;;5.13;;
51382;SDS011;37475;43.358;1.248;2023-03-21T06:43:32;13.25;;;5.10;;
51382;SDS011;37475;43.358;1.248;2023-03-21T06:45:58;10.98;;;5.30;;
51382;SDS011;37475;43.358;1.248;2023-03-21T06:48:25;9.50;;;5.25;;
51382;SDS011;37475;43.358;1.248;2023-03-21T06:50:52;13.25;;;4.93;;
51382;SDS011;37475;43.358;1.248;2023-03-21T06:53:19;9.63;;;5.25;;
51382;SDS011;37475;43.358;1.248;2023-03-21T06:55:52;12.02;;;5.28;;
51382;SDS011;37475;43.358;1.248;2023-03-21T06:58:18;11.73;;;5.07;;
51382;SDS011;37475;43.358;1.248;2023-03-21T07:00:45;8.32;;;5.13;;
51382;SDS011;37475;43.358;1.248;2023-03-21T07:03:12;11.40;;;5.50;;
51382;SDS011;37475;43.358;1.248;2023-03-21T07:05:38;8.35;;;5.03;;
51382;SDS011;37475;43.358;1.248;2023-03-21T07:08:05;9.93;;;5.05;;
51382;SDS011;37475;43.358;1.248;2023-03-21T07:10:37;9.73;;;4.78;;
51382;SDS011;37475;43.358;1.248;2023-03-21T07:13:04;11.75;;;4.68;;
51382;SDS011;37475;43.358;1.248;2023-03-21T07:15:30;9.68;;;4.93;;
51382;SDS011;37475;43.358;1.248;2023-03-21T07:17:58;9.52;;;4.30;;
51382;SDS011;37475;43.358;1.248;2023-03-21T07:20:24;9.48;;;4.18;;
51382;SDS011;37475;43.358;1.248;2023-03-21T07:22:51;7.68;;;3.75;;
51382;SDS011;37475;43.358;1.248;2023-03-21T07:25:17;9.07;;;4.45;;
51382;SDS011;37475;43.358;1.248;2023-03-21T07:27:44;7.20;;;3.90;;
51382;SDS011;37475;43.358;1.248;2023-03-21T07:30:10;7.75;;;3.65;;
51382;SDS011;37475;43.358;1.248;2023-03-21T07:32:37;7.97;;;4.03;;
51382;SDS011;37475;43.358;1.248;2023-03-21T07:35:04;9.45;;;4.32;;
51382;SDS011;37475;43.358;1.248;2023-03-21T07:37:32;11.90;;;5.18;;
51382;SDS011;37475;43.358;1.248;2023-03-21T07:39:58;8.63;;;4.65;;
51382;SDS011;37475;43.358;1.248;2023-03-21T07:42:24;7.80;;;4.38;;
51382;SDS011;37475;43.358;1.248;2023-03-21T07:44:49;10.50;;;4.50;;
51382;SDS011;37475;43.358;1.248;2023-03-21T07:47:16;11.75;;;4.45;;
51382;SDS011;37475;43.358;1.248;2023-03-21T07:49:42;7.18;;;4.03;;
51382;SDS011;37475;43.358;1.248;2023-03-21T07:52:08;11.15;;;4.40;;
51382;SDS011;37475;43.358;1.248;2023-03-21T07:54:34;10.98;;;4.97;;
51382;SDS011;37475;43.358;1.248;2023-03-21T07:57:00;9.73;;;5.05;;
51382;SDS011;37475;43.358;1.248;2023-03-21T07:59:25;11.85;;;5.20;;
51382;SDS011;37475;43.358;1.248;2023-03-21T08:01:51;10.52;;;4.90;;
51382;SDS011;37475;43.358;1.248;2023-03-21T08:04:17;9.32;;;5.38;;
51382;SDS011;37475;43.358;1.248;2023-03-21T08:06:43;10.02;;;5.45;;
51382;SDS011;37475;43.358;1.248;2023-03-21T08:09:08;8.93;;;5.65;;
51382;SDS011;37475;43.358;1.248;2023-03-21T08:11:34;9.50;;;5.40;;
51382;SDS011;37475;43.358;1.248;2023-03-21T08:14:00;10.57;;;5.65;;
51382;SDS011;37475;43.358;1.248;2023-03-21T08:16:26;8.98;;;5.10;;
51382;SDS011;37475;43.358;1.248;2023-03-21T08:18:52;10.10;;;5.35;;
51382;SDS011;37475;43.358;1.248;2023-03-21T08:21:18;9.60;;;5.43;;
51382;SDS011;37475;43.358;1.248;2023-03-21T08:23:44;11.48;;;5.40;;
51382;SDS011;37475;43.358;1.248;2023-03-21T08:26:10;13.30;;;5.68;;
51382;SDS011;37475;43.358;1.248;2023-03-21T08:28:42;12.35;;;5.05;;
51382;SDS011;37475;43.358;1.248;2023-03-21T08:31:09;11.27;;;5.10;;
51382;SDS011;37475;43.358;1.248;2023-03-21T08:33:37;10.75;;;5.22;;
51382;SDS011;37475;43.358;1.248;2023-03-21T08:36:03;10.93;;;5.68;;
51382;SDS011;37475;43.358;1.248;2023-03-21T08:38:30;10.23;;;4.95;;
51382;SDS011;37475;43.358;1.248;2023-03-21T08:41:00;12.02;;;4.88;;
51382;SDS011;37475;43.358;1.248;2023-03-21T08:43:27;10.85;;;4.95;;
51382;SDS011;37475;43.358;1.248;2023-03-21T08:45:54;11.55;;;5.25;;
51382;SDS011;37475;43.358;1.248;2023-03-21T08:48:20;12.73;;;4.88;;
51382;SDS011;37475;43.358;1.248;2023-03-21T08:50:48;10.07;;;5.10;;
51382;SDS011;37475;43.358;1.248;2023-03-21T08:53:14;8.77;;;4.50;;
51382;SDS011;37475;43.358;1.248;2023-03-21T08:55:40;13.77;;;5.45;;
51382;SDS011;37475;43.358;1.248;2023-03-21T08:58:05;10.07;;;5.10;;
51382;SDS011;37475;43.358;1.248;2023-03-21T09:00:31;11.13;;;5.00;;
51382;SDS011;37475;43.358;1.248;2023-03-21T09:02:57;11.95;;;5.70;;
51382;SDS011;37475;43.358;1.248;2023-03-21T09:05:23;15.35;;;6.15;;
51382;SDS011;37475;43.358;1.248;2023-03-21T09:07:50;11.35;;;5.72;;
51382;SDS011;37475;43.358;1.248;2023-03-21T09:10:21;16.05;;;5.05;;
51382;SDS011;37475;43.358;1.248;2023-03-21T09:12:48;8.73;;;4.60;;
51382;SDS011;37475;43.358;1.248;2023-03-21T09:15:17;11.52;;;4.90;;
51382;SDS011;37475;43.358;1.248;2023-03-21T09:17:45;12.98;;;4.90;;
51382;SDS011;37475;43.358;1.248;2023-03-21T09:20:14;12.98;;;4.97;;
51382;SDS011;37475;43.358;1.248;2023-03-21T09:22:45;11.60;;;4.90;;
51382;SDS011;37475;43.358;1.248;2023-03-21T09:25:13;10.48;;;4.90;;
51382;SDS011;37475;43.358;1.248;2023-03-21T09:27:40;9.23;;;4.30;;
51382;SDS011;37475;43.358;1.248;2023-03-21T09:30:09;11.05;;;4.57;;
51382;SDS011;37475;43.358;1.248;2023-03-21T09:32:41;11.38;;;4.80;;
51382;SDS011;37475;43.358;1.248;2023-03-21T09:35:09;12.85;;;4.75;;
51382;SDS011;37475;43.358;1.248;2023-03-21T09:37:36;8.65;;;4.47;;
51382;SDS011;37475;43.358;1.248;2023-03-21T09:40:08;8.85;;;4.40;;
51382;SDS011;37475;43.358;1.248;2023-03-21T09:45:38;10.40;;;5.03;;
51382;SDS011;37475;43.358;1.248;2023-03-21T09:51:12;13.23;;;4.45;;
51382;SDS011;37475;43.358;1.248;2023-03-21T09:53:42;12.80;;;4.93;;
51382;SDS011;37475;43.358;1.248;2023-03-21T09:56:13;9.30;;;4.55;;
51382;SDS011;37475;43.358;1.248;2023-03-21T09:58:48;8.57;;;4.40;;
51382;SDS011;37475;43.358;1.248;2023-03-21T10:01:20;10.48;;;4.72;;
51382;SDS011;37475;43.358;1.248;2023-03-21T10:03:57;10.23;;;4.60;;
51382;SDS011;37475;43.358;1.248;2023-03-21T10:06:27;12.07;;;4.85;;
51382;SDS011;37475;43.358;1.248;2023-03-21T10:08:58;7.20;;;4.05;;
51382;SDS011;37475;43.358;1.248;2023-03-21T10:11:35;7.65;;;4.38;;
51382;SDS011;37475;43.358;1.248;2023-03-21T10:14:15;11.25;;;4.10;;
51382;SDS011;37475;43.358;1.248;2023-03-21T10:17:05;6.85;;;3.88;;
51382;SDS011;37475;43.358;1.248;2023-03-21T10:22:47;8.75;;;3.83;;
51382;SDS011;37475;43.358;1.248;2023-03-21T10:25:21;12.18;;;4.38;;
51382;SDS011;37475;43.358;1.248;2023-03-21T10:27:58;7.32;;;3.78;;
51382;SDS011;37475;43.358;1.248;2023-03-21T10:30:32;5.90;;;3.58;;
51382;SDS011;37475;43.358;1.248;2023-03-21T10:33:07;8.85;;;3.95;;
51382;SDS011;37475;43.358;1.248;2023-03-21T10:35:40;8.38;;;4.05;;
51382;SDS011;37475;43.358;1.248;2023-03-21T10:38:14;7.97;;;3.75;;
51382;SDS011;37475;43.358;1.248;2023-03-21T10:40:43;12.80;;;4.10;;
51382;SDS011;37475;43.358;1.248;2023-03-21T10:43:43;10.23;;;4.20;;
51382;SDS011;37475;43.358;1.248;2023-03-21T10:46:38;7.20;;;3.63;;
51382;SDS011;37475;43.358;1.248;2023-03-21T10:48:57;6.95;;;3.85;;
51382;SDS011;37475;43.358;1.248;2023-03-21T10:51:27;7.20;;;3.83;;
51382;SDS011;37475;43.358;1.248;2023-03-21T10:53:58;9.35;;;4.05;;
51382;SDS011;37475;43.358;1.248;2023-03-21T10:56:31;6.40;;;3.42;;
51382;SDS011;37475;43.358;1.248;2023-03-21T10:59:03;6.45;;;3.38;;
51382;SDS011;37475;43.358;1.248;2023-03-21T11:01:40;5.13;;;3.00;;
51382;SDS011;37475;43.358;1.248;2023-03-21T11:04:18;7.85;;;2.88;;
51382;SDS011;37475;43.358;1.248;2023-03-21T11:06:53;5.57;;;2.92;;
51382;SDS011;37475;43.358;1.248;2023-03-21T11:09:23;6.65;;;2.80;;
51382;SDS011;37475;43.358;1.248;2023-03-21T11:12:01;4.15;;;2.10;;
51382;SDS011;37475;43.358;1.248;2023-03-21T11:14:47;4.20;;;1.90;;
51382;SDS011;37475;43.358;1.248;2023-03-21T11:17:22;3.63;;;2.00;;
51382;SDS011;37475;43.358;1.248;2023-03-21T11:19:56;4.75;;;2.15;;
51382;SDS011;37475;43.358;1.248;2023-03-21T11:22:29;3.38;;;1.45;;
51382;SDS011;37475;43.358;1.248;2023-03-21T11:25:04;4.22;;;1.58;;
51382;SDS011;37475;43.358;1.248;2023-03-21T11:27:36;4.82;;;1.80;;
51382;SDS011;37475;43.358;1.248;2023-03-21T11:30:21;5.75;;;1.48;;
51382;SDS011;37475;43.358;1.248;2023-03-21T11:32:53;3.85;;;1.75;;
51382;SDS011;37475;43.358;1.248;2023-03-21T11:35:22;5.38;;;1.65;;
51382;SDS011;37475;43.358;1.248;2023-03-21T11:37:53;3.08;;;1.63;;
51382;SDS011;37475;43.358;1.248;2023-03-21T11:40:24;4.30;;;1.60;;
51382;SDS011;37475;43.358;1.248;2023-03-21T11:45:41;3.35;;;1.60;;
51382;SDS011;37475;43.358;1.248;2023-03-21T11:48:21;4.47;;;1.60;;
51382;SDS011;37475;43.358;1.248;2023-03-21T11:50:49;4.53;;;1.60;;
51382;SDS011;37475;43.358;1.248;2023-03-21T11:53:37;4.78;;;1.50;;
51382;SDS011;37475;43.358;1.248;2023-03-21T11:59:23;4.40;;;1.40;;
51382;SDS011;37475;43.358;1.248;2023-03-21T12:05:27;4.57;;;1.60;;
51382;SDS011;37475;43.358;1.248;2023-03-21T12:14:22;3.72;;;1.55;;
51382;SDS011;37475;43.358;1.248;2023-03-21T12:19:56;3.75;;;1.45;;
51382;SDS011;37475;43.358;1.248;2023-03-21T12:25:43;4.18;;;1.10;;
51382;SDS011;37475;43.358;1.248;2023-03-21T12:31:33;2.28;;;1.00;;
51382;SDS011;37475;43.358;1.248;2023-03-21T12:35:06;3.97;;;1.02;;
51382;SDS011;37475;43.358;1.248;2023-03-21T12:46:16;4.80;;;1.42;;
51382;SDS011;37475;43.358;1.248;2023-03-21T12:48:51;2.05;;;0.82;;
51382;SDS011;37475;43.358;1.248;2023-03-21T12:51:28;2.92;;;1.00;;
51382;SDS011;37475;43.358;1.248;2023-03-21T12:59:35;4.38;;;1.55;;
51382;SDS011;37475;43.358;1.248;2023-03-21T13:02:19;6.45;;;1.55;;
51382;SDS011;37475;43.358;1.248;2023-03-21T13:07:41;14.13;;;1.30;;
51382;SDS011;37475;43.358;1.248;2023-03-21T13:10:13;3.80;;;1.20;;
51382;SDS011;37475;43.358;1.248;2023-03-21T13:13:03;2.72;;;1.00;;
51382;SDS011;37475;43.358;1.248;2023-03-21T13:15:52;6.85;;;1.40;;
51382;SDS011;37475;43.358;1.248;2023-03-21T13:21:22;3.80;;;1.42;;
51382;SDS011;37475;43.358;1.248;2023-03-21T13:27:46;4.25;;;1.50;;
51382;SDS011;37475;43.358;1.248;2023-03-21T13:30:06;2.80;;;1.38;;
51382;SDS011;37475;43.358;1.248;2023-03-21T13:32:51;3.28;;;1.08;;
51382;SDS011;37475;43.358;1.248;2023-03-21T13:35:44;4.22;;;1.10;;
51382;SDS011;37475;43.358;1.248;2023-03-21T13:38:29;2.20;;;1.00;;
51382;SDS011;37475;43.358;1.248;2023-03-21T13:48:59;1.63;;;0.95;;
51382;SDS011;37475;43.358;1.248;2023-03-21T13:51:57;2.85;;;1.10;;
51382;SDS011;37475;43.358;1.248;2023-03-21T13:54:38;2.67;;;1.20;;
51382;SDS011;37475;43.358;1.248;2023-03-21T14:03:05;2.10;;;0.98;;
51382;SDS011;37475;43.358;1.248;2023-03-21T14:05:34;3.20;;;0.90;;
51382;SDS011;37475;43.358;1.248;2023-03-21T14:08:02;2.55;;;1.00;;
51382;SDS011;37475;43.358;1.248;2023-03-21T14:10:39;3.00;;;1.02;;
51382;SDS011;37475;43.358;1.248;2023-03-21T14:13:15;5.10;;;1.00;;
51382;SDS011;37475;43.358;1.248;2023-03-21T14:15:47;2.28;;;0.82;;
51382;SDS011;37475;43.358;1.248;2023-03-21T14:18:19;2.35;;;1.10;;
51382;SDS011;37475;43.358;1.248;2023-03-21T14:20:55;3.17;;;1.20;;
51382;SDS011;37475;43.358;1.248;2023-03-21T14:23:23;3.10;;;0.90;;
51382;SDS011;37475;43.358;1.248;2023-03-21T14:25:49;2.45;;;0.80;;
51382;SDS011;37475;43.358;1.248;2023-03-21T14:28:20;3.85;;;1.10;;
51382;SDS011;37475;43.358;1.248;2023-03-21T14:30:50;2.25;;;1.00;;
51382;SDS011;37475;43.358;1.248;2023-03-21T14:33:22;2.50;;;1.02;;
51382;SDS011;37475;43.358;1.248;2023-03-21T14:36:05;2.85;;;1.05;;
51382;SDS011;37475;43.358;1.248;2023-03-21T14:38:37;1.85;;;0.88;;
51382;SDS011;37475;43.358;1.248;2023-03-21T14:41:04;2.67;;;0.95;;
51382;SDS011;37475;43.358;1.248;2023-03-21T14:43:56;2.88;;;0.93;;
51382;SDS011;37475;43.358;1.248;2023-03-21T14:46:33;3.40;;;1.17;;
51382;SDS011;37475;43.358;1.248;2023-03-21T14:49:08;1.77;;;0.82;;
51382;SDS011;37475;43.358;1.248;2023-03-21T14:51:44;3.00;;;1.33;;
51382;SDS011;37475;43.358;1.248;2023-03-21T14:54:14;2.03;;;1.00;;
51382;SDS011;37475;43.358;1.248;2023-03-21T14:56:44;2.08;;;0.80;;
51382;SDS011;37475;43.358;1.248;2023-03-21T14:59:15;2.92;;;1.10;;
51382;SDS011;37475;43.358;1.248;2023-03-21T15:01:45;2.97;;;1.20;;
51382;SDS011;37475;43.358;1.248;2023-03-21T15:04:13;4.30;;;1.13;;
51382;SDS011;37475;43.358;1.248;2023-03-21T15:07:21;2.85;;;0.80;;
51382;SDS011;37475;43.358;1.248;2023-03-21T15:09:53;7.22;;;1.13;;
51382;SDS011;37475;43.358;1.248;2023-03-21T15:12:22;3.72;;;0.98;;
51382;SDS011;37475;43.358;1.248;2023-03-21T15:14:47;4.60;;;1.05;;
51382;SDS011;37475;43.358;1.248;2023-03-21T15:17:14;2.33;;;1.10;;
51382;SDS011;37475;43.358;1.248;2023-03-21T15:19:40;3.33;;;1.02;;
51382;SDS011;37475;43.358;1.248;2023-03-21T15:25:03;3.95;;;1.42;;
51382;SDS011;37475;43.358;1.248;2023-03-21T15:27:34;5.50;;;1.38;;
51382;SDS011;37475;43.358;1.248;2023-03-21T15:30:05;4.20;;;1.25;;
51382;SDS011;37475;43.358;1.248;2023-03-21T15:32:39;2.83;;;1.13;;
51382;SDS011;37475;43.358;1.248;2023-03-21T15:35:06;3.53;;;1.45;;
51382;SDS011;37475;43.358;1.248;2023-03-21T15:37:58;6.32;;;1.42;;
51382;SDS011;37475;43.358;1.248;2023-03-21T15:40:28;5.05;;;1.40;;
51382;SDS011;37475;43.358;1.248;2023-03-21T15:45:31;3.75;;;1.50;;
51382;SDS011;37475;43.358;1.248;2023-03-21T15:48:01;2.50;;;1.00;;
51382;SDS011;37475;43.358;1.248;2023-03-21T15:50:37;3.08;;;1.23;;
51382;SDS011;37475;43.358;1.248;2023-03-21T15:53:15;2.80;;;1.15;;
51382;SDS011;37475;43.358;1.248;2023-03-21T15:55:47;6.65;;;2.10;;
51382;SDS011;37475;43.358;1.248;2023-03-21T16:00:52;3.20;;;1.10;;
51382;SDS011;37475;43.358;1.248;2023-03-21T16:03:21;3.58;;;1.30;;
51382;SDS011;37475;43.358;1.248;2023-03-21T16:06:03;4.85;;;1.15;;
51382;SDS011;37475;43.358;1.248;2023-03-21T16:08:45;2.90;;;1.23;;
51382;SDS011;37475;43.358;1.248;2023-03-21T16:11:17;3.90;;;1.30;;
51382;SDS011;37475;43.358;1.248;2023-03-21T16:13:54;2.30;;;0.98;;
51382;SDS011;37475;43.358;1.248;2023-03-21T16:16:21;2.65;;;1.08;;
51382;SDS011;37475;43.358;1.248;2023-03-21T16:18:50;3.03;;;1.00;;
51382;SDS011;37475;43.358;1.248;2023-03-21T16:21:19;2.67;;;0.80;;
51382;SDS011;37475;43.358;1.248;2023-03-21T16:23:48;2.80;;;1.10;;
51382;SDS011;37475;43.358;1.248;2023-03-21T16:26:21;1.65;;;0.88;;
51382;SDS011;37475;43.358;1.248;2023-03-21T16:28:52;2.80;;;0.98;;
51382;SDS011;37475;43.358;1.248;2023-03-21T16:31:20;3.08;;;0.93;;
51382;SDS011;37475;43.358;1.248;2023-03-21T16:33:48;4.40;;;1.00;;
51382;SDS011;37475;43.358;1.248;2023-03-21T16:36:25;3.15;;;1.10;;
51382;SDS011;37475;43.358;1.248;2023-03-21T16:38:57;3.33;;;1.02;;
51382;SDS011;37475;43.358;1.248;2023-03-21T16:41:24;2.70;;;1.30;;
51382;SDS011;37475;43.358;1.248;2023-03-21T16:43:51;2.13;;;1.00;;
51382;SDS011;37475;43.358;1.248;2023-03-21T16:48:47;4.72;;;1.45;;
51382;SDS011;37475;43.358;1.248;2023-03-21T16:51:19;3.47;;;1.40;;
51382;SDS011;37475;43.358;1.248;2023-03-21T16:53:54;3.67;;;1.33;;
51382;SDS011;37475;43.358;1.248;2023-03-21T16:56:33;3.72;;;1.27;;
51382;SDS011;37475;43.358;1.248;2023-03-21T16:59:03;4.07;;;1.50;;
51382;SDS011;37475;43.358;1.248;2023-03-21T17:01:30;3.75;;;1.48;;
51382;SDS011;37475;43.358;1.248;2023-03-21T17:03:56;3.80;;;1.63;;